createdAt,value
2018-05-25T00:01:06.322Z,99.90
2018-05-25T00:03:34.642Z,99.90
2018-05-25T00:06:02.221Z,99.90
2018-05-25T00:08:29.765Z,99.90
2018-05-25T00:10:57.340Z,99.90
2018-05-25T00:13:24.892Z,99.90
2018-05-25T00:15:52.464Z,99.90
2018-05-25T00:18:20.012Z,99.90
2018-05-25T00:20:47.586Z,99.90
2018-05-25T00:23:15.148Z,99.90
2018-05-25T00:25:43.492Z,99.90
2018-05-25T00:28:11.054Z,99.90
2018-05-25T00:30:38.638Z,99.90
2018-05-25T00:33:06.207Z,99.90
2018-05-25T00:35:33.795Z,99.90
2018-05-25T00:38:02.112Z,99.90
2018-05-25T00:40:29.707Z,99.90
2018-05-25T00:42:57.252Z,99.90
2018-05-25T00:45:24.852Z,99.90
2018-05-25T00:47:52.401Z,99.90
2018-05-25T00:50:20.060Z,99.90
2018-05-25T00:52:47.644Z,99.90
2018-05-25T00:55:27.854Z,99.90
2018-05-25T00:57:55.400Z,99.90
2018-05-25T01:00:22.958Z,99.90
2018-05-25T01:02:50.524Z,99.90
2018-05-25T01:05:18.077Z,99.90
2018-05-25T01:07:45.652Z,99.90
2018-05-25T01:10:13.982Z,99.90
2018-05-25T01:12:42.317Z,99.90
2018-05-25T01:15:09.873Z,99.90
2018-05-25T01:17:37.470Z,99.90
2018-05-25T01:20:05.809Z,99.90
2018-05-25T01:22:33.395Z,99.90
2018-05-25T01:25:00.986Z,99.90
2018-05-25T01:27:29.331Z,99.90
2018-05-25T01:29:56.899Z,99.90
2018-05-25T01:32:24.477Z,99.90
2018-05-25T01:34:52.785Z,99.90
2018-05-25T01:37:20.367Z,99.90
2018-05-25T01:39:47.910Z,99.90
2018-05-25T01:42:15.480Z,99.90
2018-05-25T01:44:43.056Z,99.90
2018-05-25T01:47:10.642Z,99.90
2018-05-25T01:49:38.177Z,99.90
2018-05-25T01:52:05.771Z,99.90
2018-05-25T01:54:34.082Z,99.90
2018-05-25T01:57:01.681Z,99.90
2018-05-25T01:59:29.224Z,99.90
2018-05-25T02:01:56.805Z,99.90
2018-05-25T02:04:24.359Z,99.90
2018-05-25T02:06:51.941Z,99.90
2018-05-25T02:09:19.499Z,99.90
2018-05-25T02:11:47.072Z,99.90
2018-05-25T02:14:15.392Z,99.90
2018-05-25T02:16:42.969Z,99.90
2018-05-25T02:19:10.514Z,99.90
2018-05-25T02:21:38.086Z,99.90
2018-05-25T02:24:05.640Z,99.90
2018-05-25T02:26:33.211Z,99.90
2018-05-25T02:29:00.753Z,99.90
2018-05-25T02:31:28.338Z,99.90
2018-05-25T02:33:55.882Z,99.90
2018-05-25T02:36:23.460Z,99.90
2018-05-25T02:38:51.026Z,99.90
2018-05-25T02:41:18.603Z,99.90
2018-05-25T02:43:46.927Z,99.90
2018-05-25T02:46:14.504Z,99.90
2018-05-25T02:48:42.050Z,99.90
2018-05-25T02:51:09.634Z,99.90
2018-05-25T02:53:37.206Z,99.90
2018-05-25T02:56:04.757Z,99.90
2018-05-25T02:58:32.332Z,99.90
2018-05-25T03:00:59.878Z,99.90
2018-05-25T03:03:27.461Z,99.90
2018-05-25T03:05:55.049Z,99.90
2018-05-25T03:08:22.649Z,99.90
2018-05-25T03:10:50.200Z,99.90
2018-05-25T03:13:17.796Z,99.90
2018-05-25T03:15:45.345Z,99.90
2018-05-25T03:18:12.920Z,99.90
2018-05-25T03:20:40.482Z,99.90
2018-05-25T03:23:08.053Z,99.90
2018-05-25T03:25:36.374Z,99.90
2018-05-25T03:28:03.954Z,99.90
2018-05-25T03:30:31.521Z,99.90
2018-05-25T03:32:59.099Z,99.90
2018-05-25T03:35:26.654Z,99.90
2018-05-25T03:37:54.225Z,99.90
2018-05-25T03:40:22.549Z,99.90
2018-05-25T03:42:50.132Z,99.90
2018-05-25T03:45:17.692Z,99.90
2018-05-25T03:47:45.277Z,99.90
2018-05-25T03:50:12.834Z,99.90
2018-05-25T03:52:40.416Z,99.90
2018-05-25T03:55:08.750Z,99.90
2018-05-25T03:57:36.332Z,99.90
2018-05-25T04:00:15.720Z,99.90
2018-05-25T04:02:43.310Z,99.90
2018-05-25T04:05:10.869Z,99.90
2018-05-25T04:07:38.451Z,99.90
2018-05-25T04:10:06.034Z,99.90
2018-05-25T04:12:34.381Z,99.90
2018-05-25T04:15:01.934Z,99.90
2018-05-25T04:17:29.528Z,99.90
2018-05-25T04:19:57.845Z,99.90
2018-05-25T04:22:25.421Z,99.90
2018-05-25T04:24:52.974Z,99.90
2018-05-25T04:27:20.572Z,99.90
2018-05-25T04:29:48.141Z,99.90
2018-05-25T04:32:15.730Z,99.90
2018-05-25T04:34:43.325Z,99.90
2018-05-25T04:37:10.898Z,99.90
2018-05-25T04:39:38.458Z,99.90
2018-05-25T04:42:06.049Z,99.90
2018-05-25T04:44:34.382Z,99.90
2018-05-25T04:47:01.960Z,99.90
2018-05-25T04:49:29.521Z,99.90
2018-05-25T04:51:57.097Z,99.90
2018-05-25T04:54:24.699Z,99.90
2018-05-25T04:56:52.261Z,99.90
2018-05-25T04:59:19.848Z,99.90
2018-05-25T05:01:47.497Z,99.90
2018-05-25T05:04:15.081Z,99.90
2018-05-25T05:06:42.650Z,99.90
2018-05-25T05:09:10.259Z,99.90
2018-05-25T05:11:37.828Z,99.90
2018-05-25T05:14:05.409Z,99.90
2018-05-25T05:16:32.964Z,99.90
2018-05-25T05:19:00.541Z,99.90
2018-05-25T05:21:28.104Z,99.90
2018-05-25T05:23:55.684Z,99.90
2018-05-25T05:26:23.290Z,99.90
2018-05-25T05:28:50.869Z,99.90
2018-05-25T05:31:18.421Z,99.90
2018-05-25T05:33:45.989Z,99.90
2018-05-25T05:36:13.554Z,99.90
2018-05-25T05:38:41.127Z,99.90
2018-05-25T05:41:08.684Z,99.90
2018-05-25T05:43:36.268Z,99.90
2018-05-25T05:46:03.814Z,99.90
2018-05-25T05:48:31.398Z,99.90
2018-05-25T05:50:59.740Z,99.90
2018-05-25T05:53:28.080Z,99.90
2018-05-25T05:55:55.628Z,99.90
2018-05-25T05:58:23.974Z,99.90
2018-05-25T06:00:51.533Z,99.90
2018-05-25T06:03:19.105Z,99.90
2018-05-25T06:05:46.669Z,99.90
2018-05-25T06:08:15.028Z,99.90
2018-05-25T06:10:42.587Z,99.90
2018-05-25T06:13:10.173Z,99.90
2018-05-25T06:15:38.495Z,99.90
2018-05-25T06:18:06.069Z,99.90
2018-05-25T06:20:33.614Z,99.90
2018-05-25T06:23:01.186Z,99.90
2018-05-25T06:25:28.801Z,99.90
2018-05-25T06:27:56.340Z,99.90
2018-05-25T06:30:23.888Z,99.90
2018-05-25T06:54:13.644Z,99.90
2018-05-25T06:56:41.983Z,99.90
2018-05-25T06:59:09.575Z,99.90
2018-05-25T07:01:37.925Z,99.90
2018-05-25T07:04:05.555Z,99.90
2018-05-25T07:06:33.860Z,99.90
2018-05-25T07:09:01.430Z,99.90
2018-05-25T07:11:28.972Z,99.90
2018-05-25T07:13:57.377Z,99.90
2018-05-25T07:16:24.928Z,99.90
2018-05-25T07:18:52.514Z,99.90
2018-05-25T07:21:20.847Z,99.90
2018-05-25T07:23:48.462Z,99.90
2018-05-25T07:26:16.780Z,99.90
2018-05-25T07:28:44.369Z,99.90
2018-05-25T07:31:11.929Z,99.90
2018-05-25T07:33:39.502Z,99.90
2018-05-25T07:36:07.057Z,99.90
2018-05-25T07:38:34.643Z,99.90
2018-05-25T07:41:02.961Z,99.90
2018-05-25T07:43:30.533Z,99.90
2018-05-25T07:45:58.097Z,99.90
2018-05-25T07:48:25.665Z,99.90
2018-05-25T07:50:53.252Z,99.90
2018-05-25T07:53:21.580Z,99.90
2018-05-25T07:55:49.116Z,99.90
2018-05-25T07:58:16.690Z,99.90
2018-05-25T08:00:44.243Z,99.90
2018-05-25T08:03:11.818Z,99.90
2018-05-25T08:05:39.365Z,99.90
2018-05-25T08:08:06.937Z,99.90
2018-05-25T08:10:34.485Z,99.90
2018-05-25T08:15:36.066Z,99.90
2018-05-25T08:20:37.610Z,99.90
2018-05-25T08:23:06.267Z,99.90
2018-05-25T08:25:33.814Z,99.90
2018-05-25T08:28:01.382Z,99.90
2018-05-25T08:30:30.077Z,99.90
2018-05-25T08:32:58.455Z,99.90
2018-05-25T08:35:26.769Z,99.90
2018-05-25T08:37:54.334Z,99.90
2018-05-25T08:40:21.882Z,99.90
2018-05-25T08:42:49.483Z,99.90
2018-05-25T08:45:17.037Z,99.90
2018-05-25T08:47:44.622Z,99.90
2018-05-25T08:50:12.183Z,99.90
2018-05-25T08:52:39.749Z,99.90
2018-05-25T08:55:07.369Z,99.90
2018-05-25T08:57:34.899Z,99.90
2018-05-25T09:00:02.490Z,99.90
2018-05-25T09:02:30.830Z,99.90
2018-05-25T09:04:58.470Z,99.90
2018-05-25T09:07:26.757Z,99.90
2018-05-25T09:09:55.090Z,99.90
2018-05-25T09:12:22.649Z,99.90
2018-05-25T09:14:50.257Z,99.90
2018-05-25T09:17:18.882Z,99.90
2018-05-25T09:19:46.451Z,99.90
2018-05-25T09:22:14.004Z,99.90
2018-05-25T09:24:41.584Z,99.90
2018-05-25T09:27:09.129Z,99.90
2018-05-25T09:29:36.698Z,99.90
2018-05-25T09:32:04.242Z,99.90
2018-05-25T09:34:31.821Z,99.90
2018-05-25T09:37:00.132Z,99.90
2018-05-25T09:39:27.705Z,99.90
2018-05-25T09:41:56.018Z,99.90
2018-05-25T09:44:23.596Z,99.90
2018-05-25T09:46:51.170Z,99.90
2018-05-25T09:49:18.749Z,99.90
2018-05-25T09:51:46.297Z,99.90
2018-05-25T09:54:13.889Z,99.90
2018-05-25T09:56:54.254Z,99.90
2018-05-25T09:59:21.834Z,99.90
2018-05-25T10:01:49.377Z,99.90
2018-05-25T10:04:16.953Z,99.90
2018-05-25T10:06:44.523Z,99.90
2018-05-25T10:09:12.113Z,99.90
2018-05-25T10:11:39.660Z,99.90
2018-05-25T10:14:07.225Z,99.90
2018-05-25T10:16:34.773Z,99.90
2018-05-25T10:19:02.337Z,99.90
2018-05-25T10:21:29.891Z,99.90
2018-05-25T10:23:57.473Z,99.90
2018-05-25T10:26:25.027Z,99.90
2018-05-25T10:28:52.601Z,99.90
2018-05-25T10:31:20.194Z,99.90
2018-05-25T10:33:48.549Z,99.90
2018-05-25T10:36:16.113Z,99.90
2018-05-25T10:38:44.468Z,99.90
2018-05-25T10:41:12.043Z,99.90
2018-05-25T10:43:39.619Z,99.90
2018-05-25T10:46:07.925Z,99.90
2018-05-25T10:48:35.510Z,99.90
2018-05-25T10:51:03.057Z,99.90
2018-05-25T10:53:30.638Z,99.90
2018-05-25T10:55:58.234Z,99.90
2018-05-25T10:58:25.799Z,99.90
2018-05-25T11:00:54.110Z,99.90
2018-05-25T11:03:21.676Z,99.90
2018-05-25T11:05:49.741Z,99.90
2018-05-25T11:08:17.327Z,99.90
2018-05-25T11:10:44.910Z,99.90
2018-05-25T11:13:12.449Z,99.90
2018-05-25T11:15:40.012Z,99.90
2018-05-25T11:18:07.548Z,99.90
2018-05-25T11:20:35.116Z,99.90
2018-05-25T11:23:02.667Z,99.90
2018-05-25T11:25:30.277Z,99.90
2018-05-25T11:27:57.821Z,99.90
2018-05-25T11:30:25.402Z,99.90
2018-05-25T11:32:53.723Z,99.90
2018-05-25T11:35:21.289Z,99.90
2018-05-25T11:37:48.821Z,99.90
2018-05-25T11:40:16.410Z,99.90
2018-05-25T11:42:43.949Z,99.90
2018-05-25T11:45:11.517Z,99.90
2018-05-25T11:47:39.060Z,99.90
2018-05-25T11:50:06.625Z,99.90
2018-05-25T11:52:34.162Z,99.90
2018-05-25T11:55:02.486Z,99.90
2018-05-25T11:57:30.032Z,99.90
2018-05-25T11:59:57.589Z,99.90
2018-05-25T12:02:25.132Z,99.90
2018-05-25T12:04:52.704Z,99.90
2018-05-25T12:07:20.242Z,99.90
2018-05-25T12:09:48.598Z,99.90
2018-05-25T12:12:16.154Z,99.90
2018-05-25T12:14:43.738Z,99.90
2018-05-25T12:17:12.062Z,99.90
2018-05-25T12:19:39.651Z,99.90
2018-05-25T12:22:07.225Z,99.90
2018-05-25T12:24:34.798Z,99.90
2018-05-25T12:27:03.122Z,99.90
2018-05-25T12:29:30.682Z,99.90
2018-05-25T12:31:58.225Z,99.90
2018-05-25T12:34:25.813Z,99.90
2018-05-25T12:36:53.365Z,99.90
2018-05-25T12:39:20.921Z,99.90
2018-05-25T12:41:48.494Z,99.90
2018-05-25T12:44:16.064Z,99.90
2018-05-25T12:46:43.617Z,99.90
2018-05-25T12:49:11.201Z,99.90
2018-05-25T12:51:38.740Z,99.90
2018-05-25T12:54:06.309Z,99.90
2018-05-25T12:56:33.864Z,99.90
2018-05-25T12:59:01.430Z,99.90
2018-05-25T13:01:28.962Z,99.90
2018-05-25T13:03:56.643Z,99.90
2018-05-25T13:08:58.214Z,99.90
2018-05-25T13:11:25.771Z,99.90
2018-05-25T13:13:53.341Z,99.90
2018-05-25T13:16:20.877Z,99.90
2018-05-25T13:18:48.437Z,99.90
2018-05-25T13:21:15.997Z,99.90
2018-05-25T13:23:43.538Z,99.90
2018-05-25T13:26:11.097Z,99.90
2018-05-25T13:28:38.634Z,99.90
2018-05-25T13:31:06.986Z,99.90
2018-05-25T13:33:34.535Z,99.90
2018-05-25T13:36:02.118Z,99.90
2018-05-25T13:38:29.675Z,99.90
2018-05-25T13:40:57.261Z,99.90
2018-05-25T13:43:25.570Z,99.90
2018-05-25T13:45:53.143Z,99.90
2018-05-25T13:48:20.697Z,99.90
2018-05-25T13:50:48.305Z,99.90
2018-05-25T13:53:16.614Z,99.90
2018-05-25T13:55:44.189Z,99.90
2018-05-25T13:58:11.754Z,99.90
2018-05-25T14:00:39.358Z,99.90
2018-05-25T14:03:07.670Z,99.90
2018-05-25T14:05:35.247Z,99.90
2018-05-25T14:08:02.804Z,99.90
2018-05-25T14:10:30.385Z,99.90
2018-05-25T14:12:57.937Z,99.90
2018-05-25T14:15:25.505Z,99.90
2018-05-25T14:17:53.042Z,99.90
2018-05-25T14:20:20.639Z,99.90
2018-05-25T14:22:48.184Z,99.90
2018-05-25T14:25:15.780Z,99.90
2018-05-25T14:27:44.086Z,99.90
2018-05-25T14:30:11.673Z,99.90
2018-05-25T14:32:39.223Z,99.90
2018-05-25T14:35:06.794Z,99.90
2018-05-25T14:37:34.344Z,99.90
2018-05-25T14:40:01.922Z,99.90
2018-05-25T14:42:29.460Z,99.90
2018-05-25T14:44:57.029Z,99.90
2018-05-25T14:47:24.582Z,99.90
2018-05-25T14:49:52.141Z,99.90
2018-05-25T14:52:19.690Z,99.90
2018-05-25T14:54:47.257Z,99.90
2018-05-25T14:57:14.799Z,99.90
2018-05-25T14:59:42.363Z,99.90
2018-05-25T15:02:09.907Z,99.90
2018-05-25T15:04:37.502Z,99.90
2018-05-25T15:09:39.714Z,99.90
2018-05-25T15:12:07.275Z,99.90
2018-05-25T15:14:34.841Z,99.90
2018-05-25T15:17:02.395Z,99.90
2018-05-25T15:19:29.984Z,99.90
2018-05-25T15:21:58.306Z,99.90
2018-05-25T15:24:25.875Z,99.90
2018-05-25T15:26:53.430Z,99.90
2018-05-25T15:29:20.993Z,99.90
2018-05-25T15:31:48.602Z,99.90
2018-05-25T15:34:16.126Z,99.90
2018-05-25T15:36:43.676Z,99.90
2018-05-25T15:39:11.229Z,99.90
2018-05-25T15:41:38.807Z,99.90
2018-05-25T15:44:06.456Z,99.90
2018-05-25T15:46:34.025Z,99.90
2018-05-25T15:49:01.589Z,99.90
2018-05-25T15:51:29.180Z,99.90
2018-05-25T15:53:56.762Z,99.90
2018-05-25T15:56:25.120Z,99.90
2018-05-25T15:58:52.645Z,99.90
2018-05-25T16:01:20.218Z,99.90
2018-05-25T16:03:47.770Z,99.90
2018-05-25T16:06:15.355Z,99.20
2018-05-25T16:08:42.929Z,99.90
2018-05-25T16:11:11.268Z,98.30
2018-05-25T16:13:38.818Z,98.30
2018-05-25T16:16:06.394Z,96.40
2018-05-25T16:18:33.950Z,95.80
2018-05-25T16:21:01.516Z,97.20
2018-05-25T16:23:29.057Z,95.80
2018-05-25T16:25:56.644Z,95.70
2018-05-25T16:28:24.190Z,94.90
2018-05-25T16:30:51.773Z,92.40
2018-05-25T16:33:20.081Z,83.50
2018-05-25T16:35:47.632Z,83.40
2018-05-25T16:38:15.939Z,83.70
2018-05-25T16:40:43.504Z,83.70
2018-05-25T16:43:11.049Z,86.30
2018-05-25T16:45:38.609Z,84.90
2018-05-25T16:48:06.152Z,87.20
2018-05-25T16:50:34.481Z,86.20
2018-05-25T16:53:02.041Z,86.30
2018-05-25T16:55:29.610Z,81.00
2018-05-25T16:57:57.149Z,83.00
2018-05-25T17:00:24.729Z,83.00
2018-05-25T17:02:52.318Z,81.80
2018-05-25T17:05:20.689Z,80.30
2018-05-25T17:07:49.020Z,78.10
2018-05-25T17:10:16.594Z,78.00
2018-05-25T17:12:44.138Z,83.40
2018-05-25T17:15:11.704Z,84.00
2018-05-25T17:17:39.261Z,85.00
2018-05-25T17:20:06.842Z,85.70
2018-05-25T17:22:34.388Z,87.10
2018-05-25T17:25:01.988Z,86.90
2018-05-25T17:27:30.313Z,83.50
2018-05-25T17:29:57.885Z,83.40
2018-05-25T17:32:25.425Z,82.40
2018-05-25T17:34:52.977Z,83.20
2018-05-25T17:37:20.561Z,85.70
2018-05-25T17:39:48.141Z,83.40
2018-05-25T17:42:15.714Z,84.20
2018-05-25T17:44:43.265Z,86.30
2018-05-25T17:47:11.605Z,86.20
2018-05-25T17:49:39.154Z,86.10
2018-05-25T17:52:06.729Z,87.10
2018-05-25T17:54:34.277Z,88.50
2018-05-25T17:57:01.863Z,89.60
2018-05-25T17:59:29.421Z,90.60
2018-05-25T18:01:56.994Z,91.30
2018-05-25T18:04:24.563Z,92.70
2018-05-25T18:06:52.219Z,92.90
2018-05-25T18:09:20.509Z,94.20
2018-05-25T18:11:48.094Z,94.20
2018-05-25T18:14:16.414Z,95.90
2018-05-25T18:16:43.982Z,95.90
2018-05-25T18:19:11.533Z,97.10
2018-05-25T18:21:39.129Z,99.00
2018-05-25T18:24:06.671Z,99.90
2018-05-25T18:26:34.253Z,99.90
2018-05-25T18:29:01.794Z,99.90
2018-05-25T18:31:29.362Z,99.90
2018-05-25T18:33:56.910Z,99.90
2018-05-25T18:36:24.470Z,99.90
2018-05-25T18:38:52.014Z,99.90
2018-05-25T18:41:19.585Z,99.90
2018-05-25T18:43:47.135Z,99.90
2018-05-25T18:46:14.699Z,99.90
2018-05-25T18:48:42.244Z,99.90
2018-05-25T18:51:09.829Z,99.90
2018-05-25T18:53:37.374Z,99.90
2018-05-25T18:56:04.937Z,99.90
2018-05-25T18:58:32.473Z,99.90
2018-05-25T19:01:00.073Z,99.90
2018-05-25T19:03:28.393Z,99.90
2018-05-25T19:05:56.725Z,99.90
2018-05-25T19:08:24.282Z,99.90
2018-05-25T19:10:51.836Z,99.90
2018-05-25T19:13:19.378Z,99.90
2018-05-25T19:15:46.937Z,99.90
2018-05-25T19:18:14.489Z,99.90
2018-05-25T19:20:42.051Z,99.90
2018-05-25T19:23:09.613Z,99.90
2018-05-25T19:25:37.846Z,99.90
2018-05-25T19:28:05.434Z,99.90
2018-05-25T19:30:33.778Z,99.90
2018-05-25T19:33:01.326Z,99.90
2018-05-25T19:38:02.849Z,99.90
2018-05-25T19:40:30.447Z,99.90
2018-05-25T19:42:58.000Z,99.90
2018-05-25T19:45:25.555Z,99.90
2018-05-25T19:47:53.121Z,99.90
2018-05-25T19:50:20.661Z,99.90
2018-05-25T19:55:26.870Z,99.90
2018-05-25T19:57:54.467Z,99.90
2018-05-25T20:00:22.794Z,99.90
2018-05-25T20:02:50.367Z,99.90
2018-05-25T20:05:17.929Z,99.90
2018-05-25T20:07:45.505Z,99.90
2018-05-25T20:10:13.050Z,99.90
2018-05-25T20:12:40.618Z,99.90
2018-05-25T20:15:08.170Z,99.90
2018-05-25T20:17:35.737Z,99.90
2018-05-25T20:20:03.286Z,99.90
2018-05-25T20:22:30.857Z,99.90
2018-05-25T20:24:58.410Z,99.90
2018-05-25T20:27:25.984Z,99.90
2018-05-25T20:29:53.548Z,99.90
2018-05-25T20:32:21.114Z,99.90
2018-05-25T20:34:48.665Z,99.90
2018-05-25T20:37:16.254Z,99.90
2018-05-25T20:39:44.558Z,99.90
2018-05-25T20:42:12.164Z,99.90
2018-05-25T20:44:39.716Z,99.90
2018-05-25T20:47:07.301Z,99.90
2018-05-25T20:49:35.618Z,99.90
2018-05-25T20:52:03.229Z,99.90
2018-05-25T20:54:30.785Z,99.90
2018-05-25T20:56:58.379Z,99.90
2018-05-25T20:59:26.690Z,99.90
2018-05-25T21:01:54.259Z,99.90
2018-05-25T21:04:21.816Z,99.90
2018-05-25T21:06:49.394Z,99.90
2018-05-25T21:09:16.942Z,99.90
2018-05-25T21:11:44.527Z,99.90
2018-05-25T21:14:12.073Z,99.90
2018-05-25T21:16:39.646Z,99.90
2018-05-25T21:19:07.203Z,99.90
2018-05-25T21:21:34.786Z,99.90
2018-05-25T21:24:03.098Z,99.90
2018-05-25T21:26:30.687Z,99.90
2018-05-25T21:28:58.230Z,99.90
2018-05-25T21:31:25.830Z,99.90
2018-05-25T21:33:53.385Z,99.90
2018-05-25T21:36:20.978Z,99.90
2018-05-25T21:38:48.532Z,99.90
2018-05-25T21:41:16.868Z,99.90
2018-05-25T21:43:44.410Z,99.90
2018-05-25T21:46:11.985Z,99.90
2018-05-25T21:48:39.536Z,99.90
2018-05-25T21:51:07.103Z,99.90
2018-05-25T21:53:34.643Z,99.90
2018-05-25T21:56:02.212Z,99.90
2018-05-25T21:58:29.747Z,99.90
2018-05-25T22:00:57.285Z,99.90
2018-05-25T22:03:25.624Z,99.90
2018-05-25T22:05:53.171Z,99.90
2018-05-25T22:08:20.747Z,99.90
2018-05-25T22:10:48.298Z,99.90
2018-05-25T22:13:15.865Z,99.90
2018-05-25T22:15:43.418Z,99.90
2018-05-25T22:18:10.997Z,99.90
2018-05-25T22:20:38.559Z,99.90
2018-05-25T22:23:06.141Z,99.90
2018-05-25T22:25:34.453Z,99.90
2018-05-25T22:28:02.056Z,99.90
2018-05-25T22:30:29.609Z,99.90
2018-05-25T22:32:57.184Z,99.90
2018-05-25T22:35:24.729Z,99.90
2018-05-25T22:37:52.927Z,99.90
2018-05-25T22:40:21.076Z,99.90
2018-05-25T22:43:01.056Z,99.90
2018-05-25T22:45:40.517Z,99.90
2018-05-25T22:48:20.041Z,99.90
2018-05-25T22:50:59.369Z,99.90
2018-05-25T22:53:32.157Z,99.90
2018-05-25T22:56:00.469Z,99.90
2018-05-25T22:58:28.042Z,99.90
2018-05-25T23:00:55.595Z,99.90
2018-05-25T23:03:23.164Z,99.90
2018-05-25T23:05:50.718Z,99.90
2018-05-25T23:08:18.303Z,99.90
2018-05-25T23:10:45.843Z,99.90
2018-05-25T23:13:13.410Z,99.90
2018-05-25T23:15:40.965Z,99.90
2018-05-25T23:18:08.531Z,99.90
2018-05-25T23:20:36.073Z,99.90
2018-05-25T23:23:03.645Z,99.90
2018-05-25T23:25:31.196Z,99.90
2018-05-25T23:27:58.761Z,99.90
2018-05-25T23:30:26.308Z,99.90
2018-05-25T23:32:53.877Z,99.90
2018-05-25T23:35:21.426Z,99.90
2018-05-25T23:37:48.992Z,99.90
2018-05-25T23:40:16.532Z,99.90
2018-05-25T23:42:44.097Z,99.90
2018-05-25T23:45:11.661Z,99.90
2018-05-25T23:47:39.224Z,99.90
2018-05-25T23:50:06.781Z,99.90
2018-05-25T23:52:34.355Z,99.90
2018-05-25T23:55:01.908Z,99.90
2018-05-25T23:57:29.484Z,99.90
2018-05-25T23:59:58.041Z,99.90
